TAF and METAR

METAR for Enugu Airport

DNEN 011300Z 20004KT 8000 FEW010 FEW019CB 26/22 Q1011 NOSIG
Report created 1. apr 15:00
wind 4 knots from SSW (200°) visibility 8000 meters some clouds (~25% cover) at 1000 feet some clouds (~25% cover) at 1900 feet of type cumulonimbus Temperature 26° with dewpoint at 22° (Humidity 78.68%) Pressure 1011 hPa no significant weather change expected the next couple of hours

TAF for Enugu Airport

TAF DNEN 011100Z 0112/0218 26012KT 6000 TS BKN010 FEW0119CB TEMPO 0113/0118 5000 -TSRA BKN008 FEW017CB BECMG 0119/0121 00000KT NSW BKN008
Report created 1. apr 13:00

between 1. apr 14:00 - 2. apr 20:00

wind 12 knots from W (260°) visibility 6000 meters thunderstorm broken clouds (~75% cover) at 1000 feet some clouds (~25% cover) at 1100 feet